sensor_id;sensor_type;location;lat;lon;timestamp;pressure;altitude;pressure_sealevel;temperature;humidity
34983;BME280;21187;50.976;13.720;2022-09-20T00:02:03;98332.78;;;13.03;60.76
34983;BME280;21187;50.976;13.720;2022-09-20T00:07:05;98342.06;;;13.02;60.94
34983;BME280;21187;50.976;13.720;2022-09-20T00:12:07;98328.13;;;13.03;60.64
34983;BME280;21187;50.976;13.720;2022-09-20T00:17:10;98335.97;;;13.08;60.16
34983;BME280;21187;50.976;13.720;2022-09-20T00:22:12;98337.66;;;13.17;60.02
34983;BME280;21187;50.976;13.720;2022-09-20T00:27:14;98334.63;;;13.22;59.81
34983;BME280;21187;50.976;13.720;2022-09-20T00:32:16;98337.78;;;13.24;59.88
34983;BME280;21187;50.976;13.720;2022-09-20T00:37:18;98340.91;;;13.26;59.84
34983;BME280;21187;50.976;13.720;2022-09-20T00:42:26;98333.91;;;13.25;59.84
34983;BME280;21187;50.976;13.720;2022-09-20T00:53:03;98331.13;;;12.98;60.61
34983;BME280;21187;50.976;13.720;2022-09-20T00:58:07;98320.00;;;12.84;61.26
34983;BME280;21187;50.976;13.720;2022-09-20T01:03:11;98327.00;;;12.85;60.97
34983;BME280;21187;50.976;13.720;2022-09-20T01:08:16;98324.59;;;12.79;61.37
34983;BME280;21187;50.976;13.720;2022-09-20T01:13:18;98341.75;;;12.84;61.43
34983;BME280;21187;50.976;13.720;2022-09-20T01:18:20;98344.47;;;12.84;61.17
34983;BME280;21187;50.976;13.720;2022-09-20T01:28:29;98338.91;;;12.57;62.12
34983;BME280;21187;50.976;13.720;2022-09-20T01:33:51;98337.63;;;12.51;62.43
34983;BME280;21187;50.976;13.720;2022-09-20T01:44:37;98331.13;;;12.55;62.20
34983;BME280;21187;50.976;13.720;2022-09-20T02:01:19;98332.63;;;12.53;62.57
34983;BME280;21187;50.976;13.720;2022-09-20T02:06:59;98323.75;;;12.56;62.40
34983;BME280;21187;50.976;13.720;2022-09-20T02:17:13;98328.78;;;12.54;62.39
34983;BME280;21187;50.976;13.720;2022-09-20T02:38:41;98347.19;;;12.44;62.11
34983;BME280;21187;50.976;13.720;2022-09-20T02:43:55;98348.78;;;12.45;62.25
34983;BME280;21187;50.976;13.720;2022-09-20T02:54:41;98342.38;;;12.34;62.31
34983;BME280;21187;50.976;13.720;2022-09-20T02:59:56;98349.34;;;12.35;62.40
34983;BME280;21187;50.976;13.720;2022-09-20T03:10:26;98357.22;;;12.40;61.96
34983;BME280;21187;50.976;13.720;2022-09-20T03:15:54;98368.06;;;12.40;62.08
34983;BME280;21187;50.976;13.720;2022-09-20T03:42:21;98368.50;;;12.42;61.68
34983;BME280;21187;50.976;13.720;2022-09-20T03:53:11;98361.72;;;12.32;61.98
34983;BME280;21187;50.976;13.720;2022-09-20T04:19:23;98371.50;;;12.37;61.45
34983;BME280;21187;50.976;13.720;2022-09-20T04:25:14;98365.03;;;12.42;61.50
34983;BME280;21187;50.976;13.720;2022-09-20T04:30:35;98382.94;;;12.46;61.39
34983;BME280;21187;50.976;13.720;2022-09-20T04:41:29;98391.41;;;12.61;61.11
34983;BME280;21187;50.976;13.720;2022-09-20T04:57:28;98398.31;;;12.58;61.32
34983;BME280;21187;50.976;13.720;2022-09-20T05:24:31;98435.72;;;12.65;61.35
34983;BME280;21187;50.976;13.720;2022-09-20T05:51:26;98446.72;;;12.53;61.63
34983;BME280;21187;50.976;13.720;2022-09-20T06:13:44;98463.25;;;12.63;61.74
34983;BME280;21187;50.976;13.720;2022-09-20T06:29:40;98473.41;;;12.67;61.99
34983;BME280;21187;50.976;13.720;2022-09-20T06:34:45;98475.91;;;12.75;61.93
34983;BME280;21187;50.976;13.720;2022-09-20T06:45:30;98491.19;;;12.64;61.90
34983;BME280;21187;50.976;13.720;2022-09-20T06:50:32;98483.50;;;12.66;62.07
34983;BME280;21187;50.976;13.720;2022-09-20T06:55:37;98486.00;;;12.75;61.92
34983;BME280;21187;50.976;13.720;2022-09-20T07:00:41;98491.66;;;12.86;62.10
34983;BME280;21187;50.976;13.720;2022-09-20T07:05:43;98500.25;;;12.88;61.98
34983;BME280;21187;50.976;13.720;2022-09-20T07:10:45;98508.56;;;12.95;62.22
34983;BME280;21187;50.976;13.720;2022-09-20T07:15:47;98503.97;;;12.99;61.80
34983;BME280;21187;50.976;13.720;2022-09-20T07:20:49;98505.41;;;13.12;61.94
34983;BME280;21187;50.976;13.720;2022-09-20T07:25:51;98511.56;;;13.09;61.81
34983;BME280;21187;50.976;13.720;2022-09-20T07:30:53;98507.91;;;13.21;61.78
34983;BME280;21187;50.976;13.720;2022-09-20T07:35:55;98520.41;;;13.26;61.46
34983;BME280;21187;50.976;13.720;2022-09-20T07:40:58;98524.28;;;13.25;61.41
34983;BME280;21187;50.976;13.720;2022-09-20T07:46:01;98533.91;;;13.19;61.62
34983;BME280;21187;50.976;13.720;2022-09-20T07:51:06;98536.44;;;13.11;61.72
34983;BME280;21187;50.976;13.720;2022-09-20T07:56:14;98534.38;;;13.05;62.07
34983;BME280;21187;50.976;13.720;2022-09-20T08:01:16;98553.00;;;13.03;62.09
34983;BME280;21187;50.976;13.720;2022-09-20T08:06:18;98558.94;;;13.08;62.28
34983;BME280;21187;50.976;13.720;2022-09-20T08:11:23;98544.19;;;13.09;62.23
34983;BME280;21187;50.976;13.720;2022-09-20T08:16:29;98542.91;;;13.23;62.10
34983;BME280;21187;50.976;13.720;2022-09-20T08:21:33;98539.09;;;13.27;61.96
34983;BME280;21187;50.976;13.720;2022-09-20T08:26:35;98552.94;;;13.19;61.96
34983;BME280;21187;50.976;13.720;2022-09-20T08:31:38;98556.50;;;13.23;61.61
34983;BME280;21187;50.976;13.720;2022-09-20T08:36:44;98556.22;;;13.28;61.46
34983;BME280;21187;50.976;13.720;2022-09-20T08:41:53;98554.72;;;13.30;61.36
34983;BME280;21187;50.976;13.720;2022-09-20T08:47:20;98557.84;;;13.32;61.41
34983;BME280;21187;50.976;13.720;2022-09-20T08:52:31;98559.34;;;13.30;61.75
34983;BME280;21187;50.976;13.720;2022-09-20T08:57:37;98565.75;;;13.38;61.21
34983;BME280;21187;50.976;13.720;2022-09-20T09:02:40;98574.41;;;13.43;61.36
34983;BME280;21187;50.976;13.720;2022-09-20T09:07:42;98577.00;;;13.56;60.99
34983;BME280;21187;50.976;13.720;2022-09-20T09:12:44;98569.03;;;13.67;61.00
34983;BME280;21187;50.976;13.720;2022-09-20T09:17:49;98584.41;;;13.78;60.79
34983;BME280;21187;50.976;13.720;2022-09-20T09:23:04;98590.34;;;13.84;60.46
34983;BME280;21187;50.976;13.720;2022-09-20T09:33:29;98587.84;;;13.95;60.42
34983;BME280;21187;50.976;13.720;2022-09-20T09:38:36;98591.41;;;13.99;60.29
34983;BME280;21187;50.976;13.720;2022-09-20T09:43:38;98591.16;;;13.85;60.41
34983;BME280;21187;50.976;13.720;2022-09-20T09:48:41;98586.66;;;13.73;60.81
34983;BME280;21187;50.976;13.720;2022-09-20T09:53:44;98587.63;;;13.84;60.57
34983;BME280;21187;50.976;13.720;2022-09-20T10:04:33;98580.91;;;14.01;60.48
34983;BME280;21187;50.976;13.720;2022-09-20T10:15:37;98591.25;;;14.38;60.70
34983;BME280;21187;50.976;13.720;2022-09-20T10:41:53;98601.78;;;15.17;59.60
34983;BME280;21187;50.976;13.720;2022-09-20T10:47:24;98601.03;;;15.20;59.23
34983;BME280;21187;50.976;13.720;2022-09-20T11:08:19;98599.31;;;15.38;57.95
34983;BME280;21187;50.976;13.720;2022-09-20T11:14:00;98598.31;;;15.50;57.73
34983;BME280;21187;50.976;13.720;2022-09-20T11:19:23;98592.91;;;15.88;57.19
34983;BME280;21187;50.976;13.720;2022-09-20T11:24:46;98594.03;;;16.28;56.21
34983;BME280;21187;50.976;13.720;2022-09-20T11:29:58;98596.44;;;16.33;55.62
34983;BME280;21187;50.976;13.720;2022-09-20T11:35:26;98600.28;;;16.25;55.58
34983;BME280;21187;50.976;13.720;2022-09-20T11:40:36;98605.66;;;16.18;55.78
34983;BME280;21187;50.976;13.720;2022-09-20T11:45:40;98599.44;;;16.21;55.65
34983;BME280;21187;50.976;13.720;2022-09-20T11:55:57;98601.00;;;16.22;55.58
34983;BME280;21187;50.976;13.720;2022-09-20T12:01:11;98602.66;;;16.30;55.49
34983;BME280;21187;50.976;13.720;2022-09-20T12:07:02;98597.41;;;16.59;55.15
34983;BME280;21187;50.976;13.720;2022-09-20T12:12:30;98587.19;;;17.08;54.84
34983;BME280;21187;50.976;13.720;2022-09-20T12:22:47;98596.31;;;17.37;53.42
34983;BME280;21187;50.976;13.720;2022-09-20T12:32:54;98593.25;;;17.53;51.77
34983;BME280;21187;50.976;13.720;2022-09-20T12:38:35;98597.50;;;17.36;51.83
34983;BME280;21187;50.976;13.720;2022-09-20T12:43:56;98594.59;;;17.00;50.91
34983;BME280;21187;50.976;13.720;2022-09-20T12:54:50;98593.19;;;16.17;50.12
34983;BME280;21187;50.976;13.720;2022-09-20T12:59:57;98589.88;;;16.00;49.59
34983;BME280;21187;50.976;13.720;2022-09-20T13:05:00;98600.81;;;16.00;49.73
34983;BME280;21187;50.976;13.720;2022-09-20T13:10:13;98605.94;;;16.50;49.99
34983;BME280;21187;50.976;13.720;2022-09-20T13:15:18;98600.09;;;17.07;49.36
34983;BME280;21187;50.976;13.720;2022-09-20T13:20:25;98606.91;;;17.50;48.90
34983;BME280;21187;50.976;13.720;2022-09-20T13:25:29;98615.13;;;17.42;48.88
34983;BME280;21187;50.976;13.720;2022-09-20T13:30:31;98614.84;;;17.76;48.36
34983;BME280;21187;50.976;13.720;2022-09-20T13:35:33;98613.78;;;18.03;48.85
34983;BME280;21187;50.976;13.720;2022-09-20T13:40:40;98602.81;;;18.03;48.48
34983;BME280;21187;50.976;13.720;2022-09-20T13:45:43;98612.16;;;17.91;48.95
34983;BME280;21187;50.976;13.720;2022-09-20T13:50:45;98616.72;;;17.51;49.02
34983;BME280;21187;50.976;13.720;2022-09-20T13:55:54;98605.75;;;17.51;49.51
34983;BME280;21187;50.976;13.720;2022-09-20T14:01:37;98609.03;;;17.96;49.48
34983;BME280;21187;50.976;13.720;2022-09-20T14:06:38;98607.53;;;18.35;48.37
34983;BME280;21187;50.976;13.720;2022-09-20T14:11:40;98604.78;;;18.38;46.91
34983;BME280;21187;50.976;13.720;2022-09-20T14:16:42;98635.72;;;18.28;47.02
34983;BME280;21187;50.976;13.720;2022-09-20T14:21:47;98647.41;;;17.92;46.00
34983;BME280;21187;50.976;13.720;2022-09-20T14:27:02;98650.00;;;17.60;46.35
34983;BME280;21187;50.976;13.720;2022-09-20T14:37:23;98658.22;;;16.90;46.66
34983;BME280;21187;50.976;13.720;2022-09-20T14:42:33;98654.47;;;16.60;46.57
34983;BME280;21187;50.976;13.720;2022-09-20T14:47:53;98660.09;;;16.37;47.13
34983;BME280;21187;50.976;13.720;2022-09-20T14:58:14;98659.72;;;15.67;48.78
34983;BME280;21187;50.976;13.720;2022-09-20T15:03:23;98648.56;;;15.45;48.99
34983;BME280;21187;50.976;13.720;2022-09-20T15:08:26;98638.38;;;14.85;50.43
34983;BME280;21187;50.976;13.720;2022-09-20T15:13:28;98648.63;;;14.45;51.67
34983;BME280;21187;50.976;13.720;2022-09-20T15:18:34;98654.19;;;14.53;51.71
34983;BME280;21187;50.976;13.720;2022-09-20T15:23:38;98661.88;;;14.47;51.86
34983;BME280;21187;50.976;13.720;2022-09-20T15:28:41;98669.69;;;14.48;52.11
34983;BME280;21187;50.976;13.720;2022-09-20T15:33:43;98677.19;;;14.32;52.47
34983;BME280;21187;50.976;13.720;2022-09-20T15:38:45;98681.72;;;14.24;52.62
34983;BME280;21187;50.976;13.720;2022-09-20T15:43:47;98675.53;;;14.27;52.32
34983;BME280;21187;50.976;13.720;2022-09-20T15:48:51;98679.50;;;14.30;52.25
34983;BME280;21187;50.976;13.720;2022-09-20T15:53:55;98678.19;;;14.24;52.35
34983;BME280;21187;50.976;13.720;2022-09-20T15:59:02;98684.97;;;14.10;52.77
34983;BME280;21187;50.976;13.720;2022-09-20T16:04:12;98677.94;;;14.09;52.70
34983;BME280;21187;50.976;13.720;2022-09-20T16:09:15;98680.22;;;14.27;52.15
34983;BME280;21187;50.976;13.720;2022-09-20T16:14:17;98688.69;;;14.22;52.64
34983;BME280;21187;50.976;13.720;2022-09-20T16:19:19;98689.66;;;14.33;52.49
34983;BME280;21187;50.976;13.720;2022-09-20T16:24:26;98695.34;;;14.47;52.47
34983;BME280;21187;50.976;13.720;2022-09-20T16:29:29;98700.94;;;14.55;52.17
34983;BME280;21187;50.976;13.720;2022-09-20T16:34:33;98704.75;;;14.50;51.71
34983;BME280;21187;50.976;13.720;2022-09-20T16:39:35;98714.53;;;14.31;52.34
34983;BME280;21187;50.976;13.720;2022-09-20T16:44:39;98726.97;;;14.09;52.78
34983;BME280;21187;50.976;13.720;2022-09-20T16:49:42;98730.78;;;14.05;52.72
34983;BME280;21187;50.976;13.720;2022-09-20T16:54:45;98730.41;;;14.06;52.79
34983;BME280;21187;50.976;13.720;2022-09-20T16:59:47;98732.00;;;13.88;52.79
34983;BME280;21187;50.976;13.720;2022-09-20T17:04:49;98730.84;;;13.89;53.06
34983;BME280;21187;50.976;13.720;2022-09-20T17:09:51;98737.03;;;13.86;52.91
34983;BME280;21187;50.976;13.720;2022-09-20T17:15:01;98745.16;;;13.66;53.08
34983;BME280;21187;50.976;13.720;2022-09-20T17:20:03;98751.44;;;13.51;53.44
34983;BME280;21187;50.976;13.720;2022-09-20T17:25:07;98778.19;;;13.48;53.67
34983;BME280;21187;50.976;13.720;2022-09-20T17:30:10;98787.66;;;13.55;53.44
34983;BME280;21187;50.976;13.720;2022-09-20T17:35:12;98795.03;;;13.70;53.28
34983;BME280;21187;50.976;13.720;2022-09-20T17:40:14;98799.56;;;13.82;53.00
34983;BME280;21187;50.976;13.720;2022-09-20T17:45:16;98807.94;;;13.93;53.15
34983;BME280;21187;50.976;13.720;2022-09-20T17:50:19;98804.22;;;14.01;53.10
34983;BME280;21187;50.976;13.720;2022-09-20T17:55:21;98806.66;;;14.06;53.04
34983;BME280;21187;50.976;13.720;2022-09-20T18:00:23;98804.94;;;13.98;53.26
34983;BME280;21187;50.976;13.720;2022-09-20T18:05:25;98814.38;;;13.85;53.64
34983;BME280;21187;50.976;13.720;2022-09-20T18:10:27;98811.53;;;13.61;54.23
34983;BME280;21187;50.976;13.720;2022-09-20T18:15:31;98808.94;;;13.49;54.64
34983;BME280;21187;50.976;13.720;2022-09-20T18:20:33;98820.50;;;13.30;55.29
34983;BME280;21187;50.976;13.720;2022-09-20T18:25:35;98816.72;;;13.35;55.04
34983;BME280;21187;50.976;13.720;2022-09-20T18:31:03;98823.81;;;13.23;55.43
34983;BME280;21187;50.976;13.720;2022-09-20T18:36:06;98834.03;;;13.26;55.49
34983;BME280;21187;50.976;13.720;2022-09-20T18:41:08;98832.84;;;13.27;55.13
34983;BME280;21187;50.976;13.720;2022-09-20T18:46:10;98834.19;;;13.18;55.70
34983;BME280;21187;50.976;13.720;2022-09-20T18:51:13;98848.28;;;13.07;55.83
34983;BME280;21187;50.976;13.720;2022-09-20T18:56:22;98845.47;;;13.04;56.25
34983;BME280;21187;50.976;13.720;2022-09-20T19:28:29;98873.97;;;12.94;56.14
34983;BME280;21187;50.976;13.720;2022-09-20T19:33:31;98885.00;;;12.85;56.14
34983;BME280;21187;50.976;13.720;2022-09-20T19:39:11;98887.66;;;12.81;56.17
34983;BME280;21187;50.976;13.720;2022-09-20T19:44:24;98891.84;;;12.79;56.14
34983;BME280;21187;50.976;13.720;2022-09-20T19:49:52;98894.03;;;12.89;56.10
34983;BME280;21187;50.976;13.720;2022-09-20T19:54:56;98893.63;;;12.87;56.44
34983;BME280;21187;50.976;13.720;2022-09-20T19:59:58;98900.47;;;12.97;56.06
34983;BME280;21187;50.976;13.720;2022-09-20T20:05:00;98899.09;;;13.03;55.75
34983;BME280;21187;50.976;13.720;2022-09-20T20:10:25;98904.34;;;12.96;55.92
34983;BME280;21187;50.976;13.720;2022-09-20T20:15:44;98902.75;;;12.95;56.05
34983;BME280;21187;50.976;13.720;2022-09-20T20:20:48;98914.41;;;12.95;55.83
34983;BME280;21187;50.976;13.720;2022-09-20T20:25:58;98912.56;;;12.99;55.92
34983;BME280;21187;50.976;13.720;2022-09-20T20:31:04;98929.56;;;12.80;56.37
34983;BME280;21187;50.976;13.720;2022-09-20T20:36:07;98926.66;;;12.61;56.67
34983;BME280;21187;50.976;13.720;2022-09-20T20:41:19;98930.91;;;12.74;56.67
34983;BME280;21187;50.976;13.720;2022-09-20T20:46:22;98928.94;;;12.87;56.27
34983;BME280;21187;50.976;13.720;2022-09-20T20:51:25;98940.56;;;13.00;56.17
34983;BME280;21187;50.976;13.720;2022-09-20T20:56:28;98939.88;;;13.03;55.98
34983;BME280;21187;50.976;13.720;2022-09-20T21:01:37;98944.84;;;13.01;55.89
34983;BME280;21187;50.976;13.720;2022-09-20T21:06:43;98951.09;;;13.02;55.96
34983;BME280;21187;50.976;13.720;2022-09-20T21:11:45;98951.88;;;13.02;56.23
34983;BME280;21187;50.976;13.720;2022-09-20T21:16:50;98946.66;;;13.09;56.09
34983;BME280;21187;50.976;13.720;2022-09-20T21:21:52;98959.53;;;13.12;56.12
34983;BME280;21187;50.976;13.720;2022-09-20T21:26:54;98952.16;;;13.13;55.83
34983;BME280;21187;50.976;13.720;2022-09-20T21:31:56;98954.88;;;13.13;56.01
34983;BME280;21187;50.976;13.720;2022-09-20T21:36:58;98961.03;;;13.10;56.05
34983;BME280;21187;50.976;13.720;2022-09-20T21:42:00;98967.00;;;13.15;56.17
34983;BME280;21187;50.976;13.720;2022-09-20T21:47:05;98964.03;;;13.21;56.19
34983;BME280;21187;50.976;13.720;2022-09-20T21:52:07;98969.44;;;13.33;55.68
34983;BME280;21187;50.976;13.720;2022-09-20T21:57:09;98971.25;;;13.29;55.83
34983;BME280;21187;50.976;13.720;2022-09-20T22:02:14;98968.78;;;13.24;56.08
34983;BME280;21187;50.976;13.720;2022-09-20T22:07:17;98975.50;;;13.14;56.24
34983;BME280;21187;50.976;13.720;2022-09-20T22:12:19;98986.19;;;13.07;56.62
34983;BME280;21187;50.976;13.720;2022-09-20T22:17:24;98987.19;;;13.14;56.13
34983;BME280;21187;50.976;13.720;2022-09-20T22:22:27;98980.59;;;13.15;56.24
34983;BME280;21187;50.976;13.720;2022-09-20T22:27:29;98984.22;;;13.20;56.31
34983;BME280;21187;50.976;13.720;2022-09-20T22:32:31;98979.28;;;13.09;56.34
34983;BME280;21187;50.976;13.720;2022-09-20T22:37:32;98984.25;;;13.07;56.48
34983;BME280;21187;50.976;13.720;2022-09-20T22:42:34;98983.38;;;13.03;56.74
34983;BME280;21187;50.976;13.720;2022-09-20T22:47:36;98989.84;;;12.98;56.50
34983;BME280;21187;50.976;13.720;2022-09-20T22:52:38;98987.56;;;13.01;56.48
34983;BME280;21187;50.976;13.720;2022-09-20T22:57:40;98975.91;;;13.00;56.71
34983;BME280;21187;50.976;13.720;2022-09-20T23:02:41;98989.94;;;13.02;56.50
34983;BME280;21187;50.976;13.720;2022-09-20T23:07:47;98977.06;;;12.99;56.89
34983;BME280;21187;50.976;13.720;2022-09-20T23:12:49;98972.56;;;12.91;57.04
34983;BME280;21187;50.976;13.720;2022-09-20T23:17:52;98989.75;;;12.95;56.68
34983;BME280;21187;50.976;13.720;2022-09-20T23:22:53;98992.91;;;12.97;56.23
34983;BME280;21187;50.976;13.720;2022-09-20T23:27:55;98994.50;;;12.98;56.37
34983;BME280;21187;50.976;13.720;2022-09-20T23:32:57;98997.56;;;12.96;56.59
34983;BME280;21187;50.976;13.720;2022-09-20T23:37:59;98998.09;;;13.02;56.41
34983;BME280;21187;50.976;13.720;2022-09-20T23:43:01;98998.31;;;13.09;56.64
34983;BME280;21187;50.976;13.720;2022-09-20T23:48:02;98992.41;;;13.07;56.21
34983;BME280;21187;50.976;13.720;2022-09-20T23:53:04;98992.22;;;13.00;56.58
34983;BME280;21187;50.976;13.720;2022-09-20T23:58:06;98991.34;;;12.96;56.59
